sensor_id;sensor_type;location;lat;lon;timestamp;P1;durP1;ratioP1;P2;durP2;ratioP2
15061;SDS011;7630;50.306;8.566;2023-08-21T00:03:08;15.57;;;14.20;;
15061;SDS011;7630;50.306;8.566;2023-08-21T00:07:09;16.03;;;14.73;;
15061;SDS011;7630;50.306;8.566;2023-08-21T00:11:11;16.47;;;15.10;;
15061;SDS011;7630;50.306;8.566;2023-08-21T00:15:12;15.27;;;13.97;;
15061;SDS011;7630;50.306;8.566;2023-08-21T00:19:13;21.40;;;13.00;;
15061;SDS011;7630;50.306;8.566;2023-08-21T00:23:15;15.10;;;13.60;;
15061;SDS011;7630;50.306;8.566;2023-08-21T00:27:15;15.47;;;14.30;;
15061;SDS011;7630;50.306;8.566;2023-08-21T00:31:17;17.97;;;16.17;;
15061;SDS011;7630;50.306;8.566;2023-08-21T00:35:18;18.97;;;17.27;;
15061;SDS011;7630;50.306;8.566;2023-08-21T00:39:19;17.20;;;15.70;;
15061;SDS011;7630;50.306;8.566;2023-08-21T00:43:20;18.00;;;16.13;;
15061;SDS011;7630;50.306;8.566;2023-08-21T00:47:21;17.90;;;16.40;;
15061;SDS011;7630;50.306;8.566;2023-08-21T00:51:22;17.73;;;16.33;;
15061;SDS011;7630;50.306;8.566;2023-08-21T00:55:24;17.43;;;15.83;;
15061;SDS011;7630;50.306;8.566;2023-08-21T00:59:25;18.33;;;16.80;;
15061;SDS011;7630;50.306;8.566;2023-08-21T01:03:26;17.27;;;15.87;;
15061;SDS011;7630;50.306;8.566;2023-08-21T01:07:28;17.13;;;15.63;;
15061;SDS011;7630;50.306;8.566;2023-08-21T01:15:51;16.70;;;15.40;;
15061;SDS011;7630;50.306;8.566;2023-08-21T01:19:55;18.93;;;17.43;;
15061;SDS011;7630;50.306;8.566;2023-08-21T01:23:57;17.90;;;16.30;;
15061;SDS011;7630;50.306;8.566;2023-08-21T01:27:58;18.00;;;16.23;;
15061;SDS011;7630;50.306;8.566;2023-08-21T01:32:06;16.20;;;14.87;;
15061;SDS011;7630;50.306;8.566;2023-08-21T01:36:23;17.97;;;16.27;;
15061;SDS011;7630;50.306;8.566;2023-08-21T01:40:26;16.97;;;15.50;;
15061;SDS011;7630;50.306;8.566;2023-08-21T01:44:27;18.17;;;16.77;;
15061;SDS011;7630;50.306;8.566;2023-08-21T01:48:28;18.50;;;17.10;;
15061;SDS011;7630;50.306;8.566;2023-08-21T01:52:29;18.37;;;16.67;;
15061;SDS011;7630;50.306;8.566;2023-08-21T01:56:30;18.27;;;16.57;;
15061;SDS011;7630;50.306;8.566;2023-08-21T02:00:31;17.73;;;16.23;;
15061;SDS011;7630;50.306;8.566;2023-08-21T02:04:33;17.97;;;16.57;;
15061;SDS011;7630;50.306;8.566;2023-08-21T02:08:34;16.07;;;14.87;;
15061;SDS011;7630;50.306;8.566;2023-08-21T02:12:35;18.70;;;17.10;;
15061;SDS011;7630;50.306;8.566;2023-08-21T02:16:38;17.50;;;15.90;;
15061;SDS011;7630;50.306;8.566;2023-08-21T02:20:39;19.07;;;17.50;;
15061;SDS011;7630;50.306;8.566;2023-08-21T02:24:40;18.17;;;16.67;;
15061;SDS011;7630;50.306;8.566;2023-08-21T02:28:41;17.80;;;16.30;;
15061;SDS011;7630;50.306;8.566;2023-08-21T02:32:44;19.27;;;17.80;;
15061;SDS011;7630;50.306;8.566;2023-08-21T02:36:45;17.33;;;15.93;;
15061;SDS011;7630;50.306;8.566;2023-08-21T02:40:46;19.07;;;17.60;;
15061;SDS011;7630;50.306;8.566;2023-08-21T02:44:48;19.33;;;17.73;;
15061;SDS011;7630;50.306;8.566;2023-08-21T02:48:49;18.03;;;16.73;;
15061;SDS011;7630;50.306;8.566;2023-08-21T02:52:50;18.27;;;16.67;;
15061;SDS011;7630;50.306;8.566;2023-08-21T02:56:51;20.03;;;18.17;;
15061;SDS011;7630;50.306;8.566;2023-08-21T03:00:52;17.67;;;16.27;;
15061;SDS011;7630;50.306;8.566;2023-08-21T03:04:53;21.57;;;19.30;;
15061;SDS011;7630;50.306;8.566;2023-08-21T03:08:55;19.67;;;18.07;;
15061;SDS011;7630;50.306;8.566;2023-08-21T03:12:56;18.47;;;17.00;;
15061;SDS011;7630;50.306;8.566;2023-08-21T03:16:57;21.13;;;19.27;;
15061;SDS011;7630;50.306;8.566;2023-08-21T03:20:58;18.03;;;16.43;;
15061;SDS011;7630;50.306;8.566;2023-08-21T03:24:59;20.43;;;18.53;;
15061;SDS011;7630;50.306;8.566;2023-08-21T03:29:01;20.57;;;19.07;;
15061;SDS011;7630;50.306;8.566;2023-08-21T03:33:02;20.73;;;18.97;;
15061;SDS011;7630;50.306;8.566;2023-08-21T03:37:04;23.03;;;21.00;;
15061;SDS011;7630;50.306;8.566;2023-08-21T03:41:05;20.43;;;18.53;;
15061;SDS011;7630;50.306;8.566;2023-08-21T03:45:06;22.27;;;20.30;;
15061;SDS011;7630;50.306;8.566;2023-08-21T03:49:08;20.57;;;18.80;;
15061;SDS011;7630;50.306;8.566;2023-08-21T03:53:09;22.73;;;20.77;;
15061;SDS011;7630;50.306;8.566;2023-08-21T03:57:10;22.30;;;20.40;;
15061;SDS011;7630;50.306;8.566;2023-08-21T04:01:11;23.00;;;20.70;;
15061;SDS011;7630;50.306;8.566;2023-08-21T04:05:12;20.23;;;18.53;;
15061;SDS011;7630;50.306;8.566;2023-08-21T04:09:13;21.67;;;19.97;;
15061;SDS011;7630;50.306;8.566;2023-08-21T04:13:14;22.67;;;20.77;;
15061;SDS011;7630;50.306;8.566;2023-08-21T04:17:20;22.50;;;20.20;;
15061;SDS011;7630;50.306;8.566;2023-08-21T04:21:22;24.57;;;22.07;;
15061;SDS011;7630;50.306;8.566;2023-08-21T04:25:25;20.97;;;19.23;;
15061;SDS011;7630;50.306;8.566;2023-08-21T04:29:26;20.50;;;18.63;;
15061;SDS011;7630;50.306;8.566;2023-08-21T04:33:28;24.57;;;22.37;;
15061;SDS011;7630;50.306;8.566;2023-08-21T04:37:30;22.90;;;20.90;;
15061;SDS011;7630;50.306;8.566;2023-08-21T04:41:32;23.47;;;21.33;;
15061;SDS011;7630;50.306;8.566;2023-08-21T04:45:33;22.73;;;20.43;;
15061;SDS011;7630;50.306;8.566;2023-08-21T04:49:34;22.40;;;20.50;;
15061;SDS011;7630;50.306;8.566;2023-08-21T04:53:35;22.13;;;20.23;;
15061;SDS011;7630;50.306;8.566;2023-08-21T04:57:36;22.67;;;20.47;;
15061;SDS011;7630;50.306;8.566;2023-08-21T05:01:37;22.57;;;20.77;;
15061;SDS011;7630;50.306;8.566;2023-08-21T05:05:39;23.83;;;21.83;;
15061;SDS011;7630;50.306;8.566;2023-08-21T05:09:40;21.90;;;20.13;;
15061;SDS011;7630;50.306;8.566;2023-08-21T05:13:41;24.57;;;22.57;;
15061;SDS011;7630;50.306;8.566;2023-08-21T05:17:42;24.27;;;22.10;;
15061;SDS011;7630;50.306;8.566;2023-08-21T05:21:44;24.57;;;22.40;;
15061;SDS011;7630;50.306;8.566;2023-08-21T05:25:47;22.03;;;20.40;;
15061;SDS011;7630;50.306;8.566;2023-08-21T05:29:49;21.93;;;20.13;;
15061;SDS011;7630;50.306;8.566;2023-08-21T05:33:51;19.87;;;18.37;;
15061;SDS011;7630;50.306;8.566;2023-08-21T05:37:53;20.53;;;18.87;;
15061;SDS011;7630;50.306;8.566;2023-08-21T05:41:54;28.03;;;25.17;;
15061;SDS011;7630;50.306;8.566;2023-08-21T05:45:56;27.77;;;25.07;;
15061;SDS011;7630;50.306;8.566;2023-08-21T05:49:57;21.00;;;19.40;;
15061;SDS011;7630;50.306;8.566;2023-08-21T05:53:58;20.00;;;18.20;;
15061;SDS011;7630;50.306;8.566;2023-08-21T05:57:59;19.83;;;18.23;;
15061;SDS011;7630;50.306;8.566;2023-08-21T06:02:00;17.77;;;16.27;;
15061;SDS011;7630;50.306;8.566;2023-08-21T06:06:02;19.47;;;17.73;;
15061;SDS011;7630;50.306;8.566;2023-08-21T06:10:04;18.37;;;16.87;;
15061;SDS011;7630;50.306;8.566;2023-08-21T06:14:05;18.67;;;17.17;;
15061;SDS011;7630;50.306;8.566;2023-08-21T06:18:07;16.57;;;14.87;;
15061;SDS011;7630;50.306;8.566;2023-08-21T06:22:08;16.70;;;14.97;;
15061;SDS011;7630;50.306;8.566;2023-08-21T06:26:09;16.80;;;14.43;;
15061;SDS011;7630;50.306;8.566;2023-08-21T06:30:10;16.50;;;15.07;;
15061;SDS011;7630;50.306;8.566;2023-08-21T06:34:12;15.77;;;14.37;;
15061;SDS011;7630;50.306;8.566;2023-08-21T06:38:13;13.93;;;12.77;;
15061;SDS011;7630;50.306;8.566;2023-08-21T06:42:14;12.40;;;11.40;;
15061;SDS011;7630;50.306;8.566;2023-08-21T06:46:15;13.47;;;12.37;;
15061;SDS011;7630;50.306;8.566;2023-08-21T06:50:17;11.77;;;10.77;;
15061;SDS011;7630;50.306;8.566;2023-08-21T06:54:18;12.87;;;11.57;;
15061;SDS011;7630;50.306;8.566;2023-08-21T06:58:20;12.80;;;11.70;;
15061;SDS011;7630;50.306;8.566;2023-08-21T07:02:21;10.20;;;9.50;;
15061;SDS011;7630;50.306;8.566;2023-08-21T07:06:23;10.30;;;9.47;;
15061;SDS011;7630;50.306;8.566;2023-08-21T07:10:24;11.87;;;10.77;;
15061;SDS011;7630;50.306;8.566;2023-08-21T07:14:25;13.77;;;11.67;;
15061;SDS011;7630;50.306;8.566;2023-08-21T07:18:26;13.67;;;12.37;;
15061;SDS011;7630;50.306;8.566;2023-08-21T07:22:27;12.27;;;11.20;;
15061;SDS011;7630;50.306;8.566;2023-08-21T07:26:29;11.77;;;10.90;;
15061;SDS011;7630;50.306;8.566;2023-08-21T07:30:30;10.93;;;9.93;;
15061;SDS011;7630;50.306;8.566;2023-08-21T07:34:33;12.93;;;9.97;;
15061;SDS011;7630;50.306;8.566;2023-08-21T07:38:35;12.63;;;11.60;;
15061;SDS011;7630;50.306;8.566;2023-08-21T07:42:36;10.27;;;9.47;;
15061;SDS011;7630;50.306;8.566;2023-08-21T07:46:37;11.67;;;10.27;;
15061;SDS011;7630;50.306;8.566;2023-08-21T07:50:39;11.77;;;10.67;;
15061;SDS011;7630;50.306;8.566;2023-08-21T07:54:40;11.27;;;10.40;;
15061;SDS011;7630;50.306;8.566;2023-08-21T07:58:41;11.30;;;10.30;;
15061;SDS011;7630;50.306;8.566;2023-08-21T08:02:42;10.67;;;9.67;;
15061;SDS011;7630;50.306;8.566;2023-08-21T08:06:44;10.47;;;9.37;;
15061;SDS011;7630;50.306;8.566;2023-08-21T08:10:46;9.60;;;8.70;;
15061;SDS011;7630;50.306;8.566;2023-08-21T08:14:47;10.17;;;9.27;;
15061;SDS011;7630;50.306;8.566;2023-08-21T08:18:48;10.63;;;9.80;;
15061;SDS011;7630;50.306;8.566;2023-08-21T08:22:49;11.40;;;10.40;;
15061;SDS011;7630;50.306;8.566;2023-08-21T08:26:50;10.30;;;9.33;;
15061;SDS011;7630;50.306;8.566;2023-08-21T08:30:51;9.77;;;8.93;;
15061;SDS011;7630;50.306;8.566;2023-08-21T08:34:53;9.70;;;8.87;;
15061;SDS011;7630;50.306;8.566;2023-08-21T08:38:54;9.67;;;8.73;;
15061;SDS011;7630;50.306;8.566;2023-08-21T08:42:55;9.80;;;8.87;;
15061;SDS011;7630;50.306;8.566;2023-08-21T08:46:56;8.10;;;7.43;;
15061;SDS011;7630;50.306;8.566;2023-08-21T08:50:58;8.40;;;7.63;;
15061;SDS011;7630;50.306;8.566;2023-08-21T08:55:00;8.93;;;8.17;;
15061;SDS011;7630;50.306;8.566;2023-08-21T08:59:01;7.57;;;7.00;;
15061;SDS011;7630;50.306;8.566;2023-08-21T09:03:03;7.70;;;7.00;;
15061;SDS011;7630;50.306;8.566;2023-08-21T09:07:08;7.40;;;6.90;;
15061;SDS011;7630;50.306;8.566;2023-08-21T09:11:10;7.67;;;6.73;;
15061;SDS011;7630;50.306;8.566;2023-08-21T09:15:11;7.17;;;6.57;;
15061;SDS011;7630;50.306;8.566;2023-08-21T09:19:12;8.03;;;7.33;;
15061;SDS011;7630;50.306;8.566;2023-08-21T09:23:17;7.07;;;6.33;;
15061;SDS011;7630;50.306;8.566;2023-08-21T09:27:19;8.50;;;7.03;;
15061;SDS011;7630;50.306;8.566;2023-08-21T09:31:23;6.23;;;5.83;;
15061;SDS011;7630;50.306;8.566;2023-08-21T09:35:27;7.60;;;6.23;;
15061;SDS011;7630;50.306;8.566;2023-08-21T09:39:32;6.33;;;5.73;;
15061;SDS011;7630;50.306;8.566;2023-08-21T09:43:37;6.57;;;5.97;;
15061;SDS011;7630;50.306;8.566;2023-08-21T09:47:39;8.20;;;6.63;;
15061;SDS011;7630;50.306;8.566;2023-08-21T09:51:41;8.03;;;4.67;;
15061;SDS011;7630;50.306;8.566;2023-08-21T09:55:45;5.07;;;4.50;;
15061;SDS011;7630;50.306;8.566;2023-08-21T09:59:47;5.93;;;5.23;;
15061;SDS011;7630;50.306;8.566;2023-08-21T10:03:51;4.97;;;4.57;;
15061;SDS011;7630;50.306;8.566;2023-08-21T10:07:55;3.27;;;2.97;;
15061;SDS011;7630;50.306;8.566;2023-08-21T10:11:56;2.13;;;1.97;;
15061;SDS011;7630;50.306;8.566;2023-08-21T10:15:58;2.53;;;2.33;;
15061;SDS011;7630;50.306;8.566;2023-08-21T10:20:07;3.20;;;2.70;;
15061;SDS011;7630;50.306;8.566;2023-08-21T10:24:06;2.50;;;2.27;;
15061;SDS011;7630;50.306;8.566;2023-08-21T10:28:07;3.07;;;2.80;;
15061;SDS011;7630;50.306;8.566;2023-08-21T10:32:12;2.83;;;2.63;;
15061;SDS011;7630;50.306;8.566;2023-08-21T10:36:13;3.70;;;3.40;;
15061;SDS011;7630;50.306;8.566;2023-08-21T10:40:21;3.70;;;3.40;;
15061;SDS011;7630;50.306;8.566;2023-08-21T10:44:33;4.23;;;3.93;;
15061;SDS011;7630;50.306;8.566;2023-08-21T10:48:36;3.37;;;2.57;;
15061;SDS011;7630;50.306;8.566;2023-08-21T10:52:39;2.80;;;2.60;;
15061;SDS011;7630;50.306;8.566;2023-08-21T10:56:47;3.43;;;3.13;;
15061;SDS011;7630;50.306;8.566;2023-08-21T11:00:58;3.40;;;2.83;;
15061;SDS011;7630;50.306;8.566;2023-08-21T11:05:00;2.97;;;2.73;;
15061;SDS011;7630;50.306;8.566;2023-08-21T11:09:02;4.27;;;3.50;;
15061;SDS011;7630;50.306;8.566;2023-08-21T11:13:06;3.73;;;3.43;;
15061;SDS011;7630;50.306;8.566;2023-08-21T11:17:08;3.50;;;3.20;;
15061;SDS011;7630;50.306;8.566;2023-08-21T11:21:10;7.23;;;3.50;;
15061;SDS011;7630;50.306;8.566;2023-08-21T11:25:14;5.37;;;3.47;;
15061;SDS011;7630;50.306;8.566;2023-08-21T11:29:16;5.63;;;3.90;;
15061;SDS011;7630;50.306;8.566;2023-08-21T11:33:18;3.83;;;3.53;;
15061;SDS011;7630;50.306;8.566;2023-08-21T11:37:20;3.73;;;3.43;;
15061;SDS011;7630;50.306;8.566;2023-08-21T11:41:23;7.17;;;3.40;;
15061;SDS011;7630;50.306;8.566;2023-08-21T11:45:24;3.43;;;3.13;;
15061;SDS011;7630;50.306;8.566;2023-08-21T11:49:26;5.07;;;3.67;;
15061;SDS011;7630;50.306;8.566;2023-08-21T11:57:50;4.33;;;3.93;;
15061;SDS011;7630;50.306;8.566;2023-08-21T12:01:53;4.97;;;3.13;;
15061;SDS011;7630;50.306;8.566;2023-08-21T12:05:54;3.97;;;3.67;;
15061;SDS011;7630;50.306;8.566;2023-08-21T12:09:56;3.77;;;3.43;;
15061;SDS011;7630;50.306;8.566;2023-08-21T12:13:57;3.93;;;3.53;;
15061;SDS011;7630;50.306;8.566;2023-08-21T12:17:58;6.40;;;5.80;;
15061;SDS011;7630;50.306;8.566;2023-08-21T12:21:59;8.53;;;6.87;;
15061;SDS011;7630;50.306;8.566;2023-08-21T12:26:00;9.67;;;6.47;;
15061;SDS011;7630;50.306;8.566;2023-08-21T12:30:02;6.63;;;6.20;;
15061;SDS011;7630;50.306;8.566;2023-08-21T12:34:04;6.50;;;5.90;;
15061;SDS011;7630;50.306;8.566;2023-08-21T12:38:09;4.87;;;4.40;;
15061;SDS011;7630;50.306;8.566;2023-08-21T12:42:10;8.53;;;5.87;;
15061;SDS011;7630;50.306;8.566;2023-08-21T12:46:12;6.57;;;6.07;;
15061;SDS011;7630;50.306;8.566;2023-08-21T12:50:13;6.33;;;5.80;;
15061;SDS011;7630;50.306;8.566;2023-08-21T12:54:14;8.27;;;5.53;;
15061;SDS011;7630;50.306;8.566;2023-08-21T12:58:15;5.83;;;5.28;;
15061;SDS011;7630;50.306;8.566;2023-08-21T13:02:16;5.22;;;4.85;;
15061;SDS011;7630;50.306;8.566;2023-08-21T13:06:19;5.47;;;4.95;;
15061;SDS011;7630;50.306;8.566;2023-08-21T13:10:20;5.60;;;5.10;;
15061;SDS011;7630;50.306;8.566;2023-08-21T13:14:21;7.00;;;5.23;;
15061;SDS011;7630;50.306;8.566;2023-08-21T13:18:23;11.20;;;5.97;;
15061;SDS011;7630;50.306;8.566;2023-08-21T13:22:24;6.80;;;6.17;;
15061;SDS011;7630;50.306;8.566;2023-08-21T13:26:25;6.30;;;5.87;;
15061;SDS011;7630;50.306;8.566;2023-08-21T13:30:28;12.87;;;6.93;;
15061;SDS011;7630;50.306;8.566;2023-08-21T13:34:29;6.20;;;5.60;;
15061;SDS011;7630;50.306;8.566;2023-08-21T13:38:31;5.50;;;5.00;;
15061;SDS011;7630;50.306;8.566;2023-08-21T13:42:33;5.67;;;5.13;;
15061;SDS011;7630;50.306;8.566;2023-08-21T13:46:36;6.17;;;5.67;;
15061;SDS011;7630;50.306;8.566;2023-08-21T13:50:38;8.27;;;5.33;;
15061;SDS011;7630;50.306;8.566;2023-08-21T13:54:39;4.27;;;3.97;;
15061;SDS011;7630;50.306;8.566;2023-08-21T13:58:40;7.20;;;6.33;;
15061;SDS011;7630;50.306;8.566;2023-08-21T14:02:41;5.47;;;5.03;;
15061;SDS011;7630;50.306;8.566;2023-08-21T14:06:43;6.12;;;5.30;;
15061;SDS011;7630;50.306;8.566;2023-08-21T14:10:44;5.77;;;5.37;;
15061;SDS011;7630;50.306;8.566;2023-08-21T14:14:48;4.92;;;4.62;;
15061;SDS011;7630;50.306;8.566;2023-08-21T14:18:49;5.28;;;4.85;;
15061;SDS011;7630;50.306;8.566;2023-08-21T14:22:50;9.40;;;5.92;;
15061;SDS011;7630;50.306;8.566;2023-08-21T14:26:51;5.85;;;5.40;;
15061;SDS011;7630;50.306;8.566;2023-08-21T14:30:52;7.20;;;5.93;;
15061;SDS011;7630;50.306;8.566;2023-08-21T14:34:53;6.80;;;5.50;;
15061;SDS011;7630;50.306;8.566;2023-08-21T14:38:55;5.77;;;5.27;;
15061;SDS011;7630;50.306;8.566;2023-08-21T14:42:56;5.27;;;4.87;;
15061;SDS011;7630;50.306;8.566;2023-08-21T14:46:57;6.13;;;5.67;;
15061;SDS011;7630;50.306;8.566;2023-08-21T14:51:00;5.20;;;4.80;;
15061;SDS011;7630;50.306;8.566;2023-08-21T14:55:02;5.50;;;5.10;;
15061;SDS011;7630;50.306;8.566;2023-08-21T14:59:03;6.00;;;5.50;;
15061;SDS011;7630;50.306;8.566;2023-08-21T15:03:05;6.10;;;5.60;;
15061;SDS011;7630;50.306;8.566;2023-08-21T15:07:06;6.20;;;5.43;;
15061;SDS011;7630;50.306;8.566;2023-08-21T15:11:08;6.13;;;5.63;;
15061;SDS011;7630;50.306;8.566;2023-08-21T15:15:12;5.50;;;5.10;;
15061;SDS011;7630;50.306;8.566;2023-08-21T15:19:14;5.60;;;5.07;;
15061;SDS011;7630;50.306;8.566;2023-08-21T15:23:15;5.43;;;4.90;;
15061;SDS011;7630;50.306;8.566;2023-08-21T15:27:16;9.13;;;4.60;;
15061;SDS011;7630;50.306;8.566;2023-08-21T15:31:18;4.97;;;4.67;;
15061;SDS011;7630;50.306;8.566;2023-08-21T15:35:19;5.63;;;4.60;;
15061;SDS011;7630;50.306;8.566;2023-08-21T15:39:20;5.37;;;4.63;;
15061;SDS011;7630;50.306;8.566;2023-08-21T15:43:22;6.53;;;5.40;;
15061;SDS011;7630;50.306;8.566;2023-08-21T15:47:23;5.77;;;5.20;;
15061;SDS011;7630;50.306;8.566;2023-08-21T15:51:26;4.67;;;4.27;;
15061;SDS011;7630;50.306;8.566;2023-08-21T15:55:27;4.63;;;4.27;;
15061;SDS011;7630;50.306;8.566;2023-08-21T15:59:28;5.37;;;4.47;;
15061;SDS011;7630;50.306;8.566;2023-08-21T16:03:29;6.97;;;4.10;;
15061;SDS011;7630;50.306;8.566;2023-08-21T16:07:31;7.27;;;3.57;;
15061;SDS011;7630;50.306;8.566;2023-08-21T16:11:34;7.83;;;4.10;;
15061;SDS011;7630;50.306;8.566;2023-08-21T16:15:35;4.00;;;3.67;;
15061;SDS011;7630;50.306;8.566;2023-08-21T16:19:36;4.83;;;4.33;;
15061;SDS011;7630;50.306;8.566;2023-08-21T16:23:38;4.80;;;4.40;;
15061;SDS011;7630;50.306;8.566;2023-08-21T16:27:39;4.20;;;3.80;;
15061;SDS011;7630;50.306;8.566;2023-08-21T16:31:41;4.43;;;4.03;;
15061;SDS011;7630;50.306;8.566;2023-08-21T16:35:42;4.23;;;3.50;;
15061;SDS011;7630;50.306;8.566;2023-08-21T16:39:43;3.40;;;3.10;;
15061;SDS011;7630;50.306;8.566;2023-08-21T16:43:46;4.47;;;4.07;;
15061;SDS011;7630;50.306;8.566;2023-08-21T16:47:47;5.27;;;4.07;;
15061;SDS011;7630;50.306;8.566;2023-08-21T16:51:48;5.40;;;4.57;;
15061;SDS011;7630;50.306;8.566;2023-08-21T16:55:49;5.17;;;4.40;;
15061;SDS011;7630;50.306;8.566;2023-08-21T16:59:50;4.80;;;4.20;;
15061;SDS011;7630;50.306;8.566;2023-08-21T17:03:51;8.00;;;4.03;;
15061;SDS011;7630;50.306;8.566;2023-08-21T17:07:52;6.17;;;4.53;;
15061;SDS011;7630;50.306;8.566;2023-08-21T17:11:54;4.67;;;4.27;;
15061;SDS011;7630;50.306;8.566;2023-08-21T17:15:55;4.30;;;3.87;;
15061;SDS011;7630;50.306;8.566;2023-08-21T17:19:56;5.73;;;5.17;;
15061;SDS011;7630;50.306;8.566;2023-08-21T17:23:57;4.87;;;4.53;;
15061;SDS011;7630;50.306;8.566;2023-08-21T17:27:58;4.83;;;4.37;;
15061;SDS011;7630;50.306;8.566;2023-08-21T17:32:07;5.23;;;4.73;;
15061;SDS011;7630;50.306;8.566;2023-08-21T17:36:15;7.93;;;5.07;;
15061;SDS011;7630;50.306;8.566;2023-08-21T17:40:16;10.93;;;6.33;;
15061;SDS011;7630;50.306;8.566;2023-08-21T17:44:18;6.03;;;5.20;;
15061;SDS011;7630;50.306;8.566;2023-08-21T17:48:20;5.83;;;5.10;;
15061;SDS011;7630;50.306;8.566;2023-08-21T17:52:42;5.63;;;5.07;;
15061;SDS011;7630;50.306;8.566;2023-08-21T17:56:43;5.30;;;4.90;;
15061;SDS011;7630;50.306;8.566;2023-08-21T18:00:44;5.77;;;5.30;;
15061;SDS011;7630;50.306;8.566;2023-08-21T18:04:46;25.13;;;5.83;;
15061;SDS011;7630;50.306;8.566;2023-08-21T18:08:47;6.20;;;5.60;;
15061;SDS011;7630;50.306;8.566;2023-08-21T18:12:49;7.13;;;6.27;;
15061;SDS011;7630;50.306;8.566;2023-08-21T18:16:50;16.23;;;8.37;;
15061;SDS011;7630;50.306;8.566;2023-08-21T18:20:52;8.27;;;7.47;;
15061;SDS011;7630;50.306;8.566;2023-08-21T18:24:54;10.40;;;7.90;;
15061;SDS011;7630;50.306;8.566;2023-08-21T18:28:56;11.17;;;7.10;;
15061;SDS011;7630;50.306;8.566;2023-08-21T18:32:57;8.27;;;7.27;;
15061;SDS011;7630;50.306;8.566;2023-08-21T18:36:59;13.70;;;7.40;;
15061;SDS011;7630;50.306;8.566;2023-08-21T18:41:00;6.57;;;6.13;;
15061;SDS011;7630;50.306;8.566;2023-08-21T18:45:01;7.70;;;7.20;;
15061;SDS011;7630;50.306;8.566;2023-08-21T18:49:03;7.70;;;7.07;;
15061;SDS011;7630;50.306;8.566;2023-08-21T18:53:05;8.90;;;6.35;;
15061;SDS011;7630;50.306;8.566;2023-08-21T18:57:07;7.53;;;6.70;;
15061;SDS011;7630;50.306;8.566;2023-08-21T19:01:08;8.03;;;7.33;;
15061;SDS011;7630;50.306;8.566;2023-08-21T19:05:09;12.93;;;8.17;;
15061;SDS011;7630;50.306;8.566;2023-08-21T19:09:11;8.07;;;7.47;;
15061;SDS011;7630;50.306;8.566;2023-08-21T19:13:12;8.37;;;7.87;;
15061;SDS011;7630;50.306;8.566;2023-08-21T19:17:13;8.80;;;8.00;;
15061;SDS011;7630;50.306;8.566;2023-08-21T19:21:14;9.03;;;8.23;;
15061;SDS011;7630;50.306;8.566;2023-08-21T19:25:15;8.90;;;8.17;;
15061;SDS011;7630;50.306;8.566;2023-08-21T19:29:16;9.30;;;8.60;;
15061;SDS011;7630;50.306;8.566;2023-08-21T19:33:17;10.10;;;9.30;;
15061;SDS011;7630;50.306;8.566;2023-08-21T19:37:20;10.13;;;9.33;;
15061;SDS011;7630;50.306;8.566;2023-08-21T19:41:23;10.43;;;9.53;;
15061;SDS011;7630;50.306;8.566;2023-08-21T19:45:24;9.97;;;9.13;;
15061;SDS011;7630;50.306;8.566;2023-08-21T19:49:25;10.57;;;9.80;;
15061;SDS011;7630;50.306;8.566;2023-08-21T19:53:27;11.57;;;10.10;;
15061;SDS011;7630;50.306;8.566;2023-08-21T19:57:28;10.13;;;9.40;;
15061;SDS011;7630;50.306;8.566;2023-08-21T20:01:29;9.93;;;9.03;;
15061;SDS011;7630;50.306;8.566;2023-08-21T20:05:30;10.53;;;9.67;;
15061;SDS011;7630;50.306;8.566;2023-08-21T20:09:31;14.17;;;9.40;;
15061;SDS011;7630;50.306;8.566;2023-08-21T20:13:33;11.93;;;10.93;;
15061;SDS011;7630;50.306;8.566;2023-08-21T20:17:34;12.43;;;10.33;;
15061;SDS011;7630;50.306;8.566;2023-08-21T20:21:35;10.87;;;9.97;;
15061;SDS011;7630;50.306;8.566;2023-08-21T20:25:37;11.50;;;10.60;;
15061;SDS011;7630;50.306;8.566;2023-08-21T20:29:38;10.60;;;9.93;;
15061;SDS011;7630;50.306;8.566;2023-08-21T20:33:39;12.57;;;9.63;;
15061;SDS011;7630;50.306;8.566;2023-08-21T20:37:40;11.60;;;10.63;;
15061;SDS011;7630;50.306;8.566;2023-08-21T20:41:43;11.27;;;10.17;;
15061;SDS011;7630;50.306;8.566;2023-08-21T20:45:44;11.97;;;11.13;;
15061;SDS011;7630;50.306;8.566;2023-08-21T20:49:46;12.67;;;11.67;;
15061;SDS011;7630;50.306;8.566;2023-08-21T20:53:47;12.30;;;11.30;;
15061;SDS011;7630;50.306;8.566;2023-08-21T20:57:48;11.53;;;10.63;;
15061;SDS011;7630;50.306;8.566;2023-08-21T21:01:50;11.27;;;10.30;;
15061;SDS011;7630;50.306;8.566;2023-08-21T21:05:52;11.60;;;10.63;;
15061;SDS011;7630;50.306;8.566;2023-08-21T21:09:53;13.00;;;11.40;;
15061;SDS011;7630;50.306;8.566;2023-08-21T21:13:55;11.27;;;10.37;;
15061;SDS011;7630;50.306;8.566;2023-08-21T21:17:56;11.07;;;10.03;;
15061;SDS011;7630;50.306;8.566;2023-08-21T21:21:58;10.80;;;10.00;;
15061;SDS011;7630;50.306;8.566;2023-08-21T21:25:59;9.47;;;8.80;;
15061;SDS011;7630;50.306;8.566;2023-08-21T21:30:01;11.53;;;10.50;;
15061;SDS011;7630;50.306;8.566;2023-08-21T21:34:02;11.27;;;10.23;;
15061;SDS011;7630;50.306;8.566;2023-08-21T21:38:04;11.37;;;10.30;;
15061;SDS011;7630;50.306;8.566;2023-08-21T21:42:05;11.97;;;10.80;;
15061;SDS011;7630;50.306;8.566;2023-08-21T21:46:14;12.67;;;10.00;;
15061;SDS011;7630;50.306;8.566;2023-08-21T21:50:12;11.37;;;10.43;;
15061;SDS011;7630;50.306;8.566;2023-08-21T21:54:13;12.33;;;11.27;;
15061;SDS011;7630;50.306;8.566;2023-08-21T21:58:14;11.07;;;10.03;;
15061;SDS011;7630;50.306;8.566;2023-08-21T22:02:15;10.40;;;9.60;;
15061;SDS011;7630;50.306;8.566;2023-08-21T22:06:16;12.20;;;11.30;;
15061;SDS011;7630;50.306;8.566;2023-08-21T22:10:17;12.10;;;10.90;;
15061;SDS011;7630;50.306;8.566;2023-08-21T22:14:19;12.77;;;11.53;;
15061;SDS011;7630;50.306;8.566;2023-08-21T22:18:20;15.30;;;12.50;;
15061;SDS011;7630;50.306;8.566;2023-08-21T22:22:21;15.70;;;12.03;;
15061;SDS011;7630;50.306;8.566;2023-08-21T22:26:22;13.03;;;11.57;;
15061;SDS011;7630;50.306;8.566;2023-08-21T22:30:23;12.13;;;10.90;;
15061;SDS011;7630;50.306;8.566;2023-08-21T22:34:25;13.00;;;11.43;;
15061;SDS011;7630;50.306;8.566;2023-08-21T22:38:26;11.53;;;10.60;;
15061;SDS011;7630;50.306;8.566;2023-08-21T22:42:27;13.60;;;12.27;;
15061;SDS011;7630;50.306;8.566;2023-08-21T22:46:28;13.07;;;11.73;;
15061;SDS011;7630;50.306;8.566;2023-08-21T22:50:29;12.73;;;11.63;;
15061;SDS011;7630;50.306;8.566;2023-08-21T22:54:30;13.47;;;12.53;;
15061;SDS011;7630;50.306;8.566;2023-08-21T22:58:31;18.70;;;11.20;;
15061;SDS011;7630;50.306;8.566;2023-08-21T23:02:32;13.53;;;12.37;;
15061;SDS011;7630;50.306;8.566;2023-08-21T23:06:34;13.07;;;11.97;;
15061;SDS011;7630;50.306;8.566;2023-08-21T23:10:35;13.43;;;12.23;;
15061;SDS011;7630;50.306;8.566;2023-08-21T23:14:36;16.83;;;13.53;;
15061;SDS011;7630;50.306;8.566;2023-08-21T23:18:37;13.47;;;12.50;;
15061;SDS011;7630;50.306;8.566;2023-08-21T23:22:39;16.03;;;14.43;;
15061;SDS011;7630;50.306;8.566;2023-08-21T23:26:40;12.50;;;11.33;;
15061;SDS011;7630;50.306;8.566;2023-08-21T23:30:41;13.50;;;12.33;;
15061;SDS011;7630;50.306;8.566;2023-08-21T23:34:42;14.97;;;13.70;;
15061;SDS011;7630;50.306;8.566;2023-08-21T23:38:43;13.57;;;12.57;;
15061;SDS011;7630;50.306;8.566;2023-08-21T23:42:44;13.67;;;12.40;;
15061;SDS011;7630;50.306;8.566;2023-08-21T23:46:46;13.53;;;12.63;;
15061;SDS011;7630;50.306;8.566;2023-08-21T23:50:47;15.67;;;14.53;;
15061;SDS011;7630;50.306;8.566;2023-08-21T23:54:48;15.33;;;14.13;;
15061;SDS011;7630;50.306;8.566;2023-08-21T23:58:50;15.53;;;14.23;;
